createdAt,value
2023-01-08T00:01:57.259Z,9.73
2023-01-08T00:05:00.122Z,9.23
2023-01-08T00:08:04.851Z,8.57
2023-01-08T00:11:08.284Z,8.97
2023-01-08T00:14:11.570Z,7.73
2023-01-08T00:17:14.381Z,7.80
2023-01-08T00:20:17.322Z,7.37
2023-01-08T00:23:22.942Z,8.13
2023-01-08T00:26:26.191Z,9.27
2023-01-08T00:29:28.991Z,7.23
2023-01-08T00:32:31.800Z,7.50
2023-01-08T00:35:34.653Z,7.33
2023-01-08T00:38:39.093Z,8.03
2023-01-08T00:41:44.178Z,7.60
2023-01-08T00:44:47.043Z,7.07
2023-01-08T00:47:49.837Z,7.30
2023-01-08T00:50:53.885Z,7.00
2023-01-08T00:53:58.065Z,6.40
2023-01-08T00:57:00.878Z,6.40
2023-01-08T01:00:04.343Z,6.80
2023-01-08T01:03:07.481Z,6.57
2023-01-08T01:06:12.062Z,6.27
2023-01-08T01:09:16.549Z,6.23
2023-01-08T01:12:19.604Z,6.97
2023-01-08T01:15:22.596Z,6.20
2023-01-08T01:18:25.444Z,6.27
2023-01-08T01:21:30.524Z,6.17
2023-01-08T01:24:34.858Z,6.30
2023-01-08T01:27:37.769Z,6.77
2023-01-08T01:30:40.919Z,6.07
2023-01-08T01:33:44.234Z,6.33
2023-01-08T01:36:47.067Z,6.57
2023-01-08T01:39:51.503Z,5.97
2023-01-08T01:42:54.299Z,5.70
2023-01-08T01:45:57.243Z,5.27
2023-01-08T01:49:03.699Z,5.53
2023-01-08T01:52:09.003Z,4.83
2023-01-08T01:55:14.249Z,4.50
2023-01-08T01:58:18.732Z,5.53
2023-01-08T02:01:22.259Z,4.63
2023-01-08T02:04:25.183Z,4.73
2023-01-08T02:07:37.657Z,5.60
2023-01-08T02:10:49.429Z,5.30
2023-01-08T02:13:59.395Z,5.17
2023-01-08T02:17:07.577Z,4.63
2023-01-08T02:20:13.582Z,4.80
2023-01-08T02:23:27.381Z,5.20
2023-01-08T02:26:32.846Z,4.60
2023-01-08T02:29:36.546Z,5.30
2023-01-08T02:32:42.780Z,4.57
2023-01-08T02:35:49.708Z,4.90
2023-01-08T02:39:05.225Z,4.60
2023-01-08T02:42:13.116Z,3.80
2023-01-08T02:45:27.429Z,4.37
2023-01-08T02:48:37.315Z,3.67
2023-01-08T02:51:44.645Z,4.70
2023-01-08T02:54:49.475Z,4.90
2023-01-08T02:57:54.317Z,3.47
2023-01-08T03:00:58.068Z,4.23
2023-01-08T03:04:07.348Z,4.33
2023-01-08T03:07:10.575Z,3.90
2023-01-08T03:10:13.869Z,4.57
2023-01-08T03:13:22.934Z,3.57
2023-01-08T03:16:33.744Z,3.83
2023-01-08T03:19:41.459Z,4.43
2023-01-08T03:22:48.351Z,4.13
2023-01-08T03:25:51.123Z,3.13
2023-01-08T03:28:57.953Z,3.60
2023-01-08T03:32:04.531Z,3.77
2023-01-08T03:35:09.582Z,3.47
2023-01-08T03:38:18.253Z,3.47
2023-01-08T03:41:22.986Z,3.77
2023-01-08T03:44:27.292Z,3.60
2023-01-08T03:47:31.842Z,3.20
2023-01-08T03:50:36.331Z,3.47
2023-01-08T03:53:39.348Z,3.23
2023-01-08T03:56:42.759Z,4.00
2023-01-08T03:59:46.945Z,2.83
2023-01-08T04:02:49.723Z,3.07
2023-01-08T04:05:52.677Z,3.03
2023-01-08T04:08:55.456Z,3.10
2023-01-08T04:11:58.214Z,2.73
2023-01-08T04:15:02.369Z,2.83
2023-01-08T04:18:05.287Z,3.20
2023-01-08T04:21:08.319Z,3.07
2023-01-08T04:24:12.993Z,2.70
2023-01-08T04:27:15.780Z,2.93
2023-01-08T04:30:19.867Z,2.57
2023-01-08T04:33:22.648Z,2.90
2023-01-08T04:36:25.444Z,2.50
2023-01-08T04:39:28.232Z,2.90
2023-01-08T04:42:31.012Z,3.13
2023-01-08T04:45:35.391Z,2.43
2023-01-08T04:48:38.311Z,1.97
2023-01-08T04:51:41.153Z,2.87
2023-01-08T04:54:43.906Z,2.70
2023-01-08T04:57:47.879Z,2.37
2023-01-08T05:00:52.419Z,2.20
2023-01-08T05:03:57.065Z,2.27
2023-01-08T05:06:59.825Z,2.33
2023-01-08T05:10:02.625Z,2.30
2023-01-08T05:13:05.430Z,2.63
2023-01-08T05:16:09.897Z,2.13
2023-01-08T05:19:12.748Z,2.43
2023-01-08T05:22:15.554Z,2.20
2023-01-08T05:25:18.323Z,2.50
2023-01-08T05:28:21.092Z,2.07
2023-01-08T05:31:25.289Z,2.43
2023-01-08T05:34:28.295Z,2.50
2023-01-08T05:37:31.069Z,2.10
2023-01-08T05:40:33.908Z,2.20
2023-01-08T05:43:36.845Z,1.80
2023-01-08T05:46:40.997Z,2.43
2023-01-08T05:49:43.820Z,1.90
2023-01-08T05:52:46.701Z,2.30
2023-01-08T05:55:49.492Z,2.17
2023-01-08T05:58:55.632Z,2.17
2023-01-08T06:02:00.186Z,1.80
2023-01-08T06:05:02.970Z,2.23
2023-01-08T06:08:08.522Z,2.50
2023-01-08T06:11:12.520Z,2.53
2023-01-08T06:14:16.544Z,2.03
2023-01-08T06:17:20.677Z,2.27
2023-01-08T06:20:23.501Z,2.53
2023-01-08T06:23:26.444Z,2.37
2023-01-08T06:26:29.213Z,2.70
2023-01-08T06:29:31.982Z,2.20
2023-01-08T06:32:36.099Z,2.10
2023-01-08T06:35:38.868Z,2.47
2023-01-08T06:38:41.667Z,3.17
2023-01-08T06:41:44.845Z,1.90
2023-01-08T06:44:47.612Z,2.40
2023-01-08T06:47:51.736Z,2.07
2023-01-08T06:50:54.893Z,2.17
2023-01-08T06:53:57.665Z,5.77
2023-01-08T06:57:00.422Z,7.80
2023-01-08T07:00:03.833Z,9.30
2023-01-08T07:03:08.044Z,5.67
2023-01-08T07:06:15.667Z,7.77
2023-01-08T07:09:18.434Z,3.33
2023-01-08T07:12:21.269Z,2.77
2023-01-08T07:15:24.102Z,2.97
2023-01-08T07:18:28.234Z,3.87
2023-01-08T07:21:31.131Z,2.40
2023-01-08T07:24:34.487Z,3.70
2023-01-08T07:27:37.234Z,2.37
2023-01-08T07:30:40.107Z,2.60
2023-01-08T07:33:44.267Z,2.60
2023-01-08T07:36:47.032Z,2.60
2023-01-08T07:39:49.793Z,3.30
2023-01-08T07:42:59.327Z,2.73
2023-01-08T07:46:03.654Z,2.90
2023-01-08T07:49:07.917Z,2.60
2023-01-08T07:52:10.667Z,2.13
2023-01-08T07:55:13.441Z,2.60
2023-01-08T07:58:16.368Z,2.43
2023-01-08T08:01:19.373Z,3.43
2023-01-08T08:04:24.366Z,2.60
2023-01-08T08:07:27.227Z,3.53
2023-01-08T08:10:30.208Z,3.80
2023-01-08T08:13:33.036Z,4.33
2023-01-08T08:16:36.144Z,3.93
2023-01-08T08:19:41.567Z,4.20
2023-01-08T08:22:44.474Z,4.80
2023-01-08T08:25:47.503Z,5.07
2023-01-08T08:28:50.386Z,4.53
2023-01-08T08:31:53.267Z,3.97
2023-01-08T08:34:57.455Z,5.20
2023-01-08T08:38:00.722Z,6.57
2023-01-08T08:41:03.505Z,5.83
2023-01-08T08:44:06.849Z,5.47
2023-01-08T08:47:09.992Z,5.53
2023-01-08T08:50:14.155Z,5.53
2023-01-08T08:53:17.075Z,4.63
2023-01-08T08:56:20.019Z,4.67
2023-01-08T08:59:22.867Z,4.57
2023-01-08T09:02:26.056Z,4.87
2023-01-08T09:05:30.443Z,4.83
2023-01-08T09:08:33.292Z,4.80
2023-01-08T09:11:36.102Z,4.40
2023-01-08T09:14:38.987Z,4.13
2023-01-08T09:17:41.784Z,3.80
2023-01-08T09:20:45.924Z,4.20
2023-01-08T09:23:49.483Z,3.77
2023-01-08T09:26:54.512Z,4.63
2023-01-08T09:29:57.346Z,3.63
2023-01-08T09:33:02.764Z,4.10
2023-01-08T09:36:10.967Z,3.97
2023-01-08T09:39:13.945Z,4.57
2023-01-08T09:42:19.661Z,4.20
2023-01-08T09:45:29.170Z,4.57
2023-01-08T09:48:36.657Z,4.47
2023-01-08T09:51:41.015Z,4.23
2023-01-08T09:54:43.800Z,3.90
2023-01-08T09:57:47.884Z,2.60
2023-01-08T10:00:51.136Z,2.97
2023-01-08T10:03:58.180Z,2.43
2023-01-08T10:07:11.948Z,2.00
2023-01-08T10:10:20.556Z,1.90
2023-01-08T10:13:23.366Z,2.10
2023-01-08T10:16:31.204Z,1.57
2023-01-08T10:19:34.086Z,1.50
2023-01-08T10:22:38.213Z,1.90
2023-01-08T10:25:53.132Z,2.30
2023-01-08T10:29:08.617Z,2.67
2023-01-08T10:32:16.456Z,2.80
2023-01-08T10:35:23.103Z,2.63
2023-01-08T10:38:33.428Z,2.60
2023-01-08T10:41:39.814Z,2.20
2023-01-08T10:44:50.978Z,1.87
2023-01-08T10:47:58.501Z,1.87
2023-01-08T10:51:14.522Z,1.60
2023-01-08T10:54:34.355Z,1.20
2023-01-08T10:57:37.218Z,1.03
2023-01-08T11:00:40.159Z,1.27
2023-01-08T11:03:43.396Z,1.20
2023-01-08T11:06:48.976Z,1.00
2023-01-08T11:09:53.804Z,1.57
2023-01-08T11:12:58.609Z,1.00
2023-01-08T11:16:04.891Z,1.27
2023-01-08T11:19:17.808Z,1.40
2023-01-08T11:22:22.425Z,1.80
2023-01-08T11:25:31.013Z,2.63
2023-01-08T11:28:45.068Z,2.97
2023-01-08T11:31:55.220Z,1.90
2023-01-08T11:35:03.369Z,2.47
2023-01-08T11:38:08.341Z,2.37
2023-01-08T11:41:22.882Z,2.17
2023-01-08T11:44:39.441Z,1.60
2023-01-08T11:48:01.643Z,1.47
2023-01-08T11:51:18.135Z,2.00
2023-01-08T11:54:34.104Z,2.63
2023-01-08T11:57:50.096Z,1.90
2023-01-08T12:01:04.842Z,1.70
2023-01-08T12:04:30.885Z,1.70
2023-01-08T12:07:43.176Z,2.27
2023-01-08T12:10:57.094Z,2.70
2023-01-08T12:14:20.138Z,2.27
2023-01-08T12:17:54.316Z,3.33
2023-01-08T12:21:07.207Z,2.60
2023-01-08T12:24:23.607Z,1.67
2023-01-08T12:27:55.698Z,3.63
2023-01-08T12:31:19.269Z,2.10
2023-01-08T12:34:30.042Z,2.90
2023-01-08T12:37:40.308Z,2.23
2023-01-08T12:40:46.077Z,1.50
2023-01-08T12:43:56.250Z,2.23
2023-01-08T12:47:03.430Z,4.73
2023-01-08T12:50:25.870Z,13.17
2023-01-08T12:53:38.875Z,8.67
2023-01-08T12:56:47.268Z,6.30
2023-01-08T12:59:57.133Z,5.97
2023-01-08T13:03:03.657Z,3.60
2023-01-08T13:06:10.026Z,3.67
2023-01-08T13:09:22.706Z,1.80
2023-01-08T13:12:34.260Z,2.30
2023-01-08T13:15:37.548Z,2.47
2023-01-08T13:18:42.631Z,3.87
2023-01-08T13:21:53.708Z,6.37
2023-01-08T13:25:28.088Z,5.83
2023-01-08T13:28:43.787Z,7.23
2023-01-08T13:31:46.653Z,6.80
2023-01-08T13:35:01.303Z,6.33
2023-01-08T13:38:15.298Z,6.63
2023-01-08T13:41:29.000Z,6.20
2023-01-08T13:44:34.439Z,6.20
2023-01-08T13:47:43.504Z,4.90
2023-01-08T13:50:48.117Z,5.30
2023-01-08T13:53:51.214Z,5.80
2023-01-08T13:57:02.367Z,5.30
2023-01-08T14:00:08.282Z,5.47
2023-01-08T14:03:23.421Z,6.00
2023-01-08T14:06:28.667Z,6.30
2023-01-08T14:09:33.870Z,5.70
2023-01-08T14:12:37.331Z,5.20
2023-01-08T14:15:40.568Z,5.33
2023-01-08T14:18:44.762Z,5.90
2023-01-08T14:21:50.405Z,6.20
2023-01-08T14:24:57.588Z,6.17
2023-01-08T14:28:02.356Z,6.13
2023-01-08T14:31:05.310Z,5.47
2023-01-08T14:34:08.179Z,8.77
2023-01-08T14:37:16.287Z,5.67
2023-01-08T14:40:30.122Z,5.33
2023-01-08T14:43:39.568Z,63.63
2023-01-08T14:46:46.302Z,31.73
2023-01-08T14:49:53.206Z,7.70
2023-01-08T14:53:00.777Z,7.20
2023-01-08T14:56:05.048Z,8.87
2023-01-08T14:59:09.299Z,8.20
2023-01-08T15:02:26.761Z,7.93
2023-01-08T15:05:31.842Z,9.07
2023-01-08T15:08:38.417Z,8.63
2023-01-08T15:11:51.406Z,7.90
2023-01-08T15:14:55.532Z,8.67
2023-01-08T15:17:59.120Z,7.23
2023-01-08T15:21:02.017Z,6.83
2023-01-08T15:24:08.096Z,7.17
2023-01-08T15:27:20.400Z,6.57
2023-01-08T15:30:29.649Z,6.07
2023-01-08T15:33:32.418Z,5.67
2023-01-08T15:36:35.335Z,5.37
2023-01-08T15:39:39.684Z,4.70
2023-01-08T15:43:11.503Z,3.83
2023-01-08T15:46:15.745Z,4.50
2023-01-08T15:49:19.033Z,4.30
2023-01-08T15:52:24.156Z,4.13
2023-01-08T15:55:28.307Z,4.50
2023-01-08T15:58:31.235Z,3.97
2023-01-08T16:01:34.309Z,7.83
2023-01-08T16:04:37.127Z,7.23
2023-01-08T16:07:40.202Z,5.67
2023-01-08T16:10:44.309Z,5.80
2023-01-08T16:13:47.731Z,10.27
2023-01-08T16:16:50.507Z,9.83
2023-01-08T16:19:53.293Z,8.87
2023-01-08T16:22:57.111Z,8.60
2023-01-08T16:26:01.241Z,8.03
2023-01-08T16:29:04.051Z,9.17
2023-01-08T16:32:07.098Z,9.90
2023-01-08T16:35:10.729Z,7.90
2023-01-08T16:38:14.041Z,9.97
2023-01-08T16:41:18.147Z,10.30
2023-01-08T16:44:24.369Z,9.97
2023-01-08T16:47:27.924Z,9.33
2023-01-08T16:50:33.049Z,8.47
2023-01-08T16:53:36.671Z,8.40
2023-01-08T16:56:40.850Z,8.00
2023-01-08T16:59:43.696Z,8.67
2023-01-08T17:02:46.445Z,8.57
2023-01-08T17:05:49.754Z,8.83
2023-01-08T17:08:52.627Z,8.67
2023-01-08T17:11:56.808Z,8.00
2023-01-08T17:14:59.626Z,8.53
2023-01-08T17:18:02.472Z,7.73
2023-01-08T17:21:05.806Z,7.00
2023-01-08T17:24:09.823Z,7.93
2023-01-08T17:27:13.930Z,7.30
2023-01-08T17:30:16.850Z,5.73
2023-01-08T17:33:19.920Z,5.97
2023-01-08T17:36:25.178Z,5.50
2023-01-08T17:39:28.422Z,4.90
2023-01-08T17:42:32.799Z,5.47
2023-01-08T17:45:38.557Z,5.10
2023-01-08T17:48:46.051Z,4.40
2023-01-08T17:51:48.850Z,4.37
2023-01-08T17:54:53.226Z,4.83
2023-01-08T17:57:57.371Z,4.67
2023-01-08T18:01:01.236Z,4.47
2023-01-08T18:04:04.521Z,5.10
2023-01-08T18:07:07.867Z,6.17
2023-01-08T18:10:12.938Z,6.90
2023-01-08T18:13:17.032Z,7.17
2023-01-08T18:16:19.837Z,8.53
2023-01-08T18:19:22.718Z,8.63
2023-01-08T18:22:25.523Z,9.70
2023-01-08T18:25:28.285Z,9.13
2023-01-08T18:28:32.466Z,10.23
2023-01-08T18:31:35.548Z,9.30
2023-01-08T18:34:38.864Z,7.73
2023-01-08T18:37:41.620Z,9.20
2023-01-08T18:40:44.592Z,7.03
2023-01-08T18:43:48.700Z,8.37
2023-01-08T18:46:51.467Z,9.20
2023-01-08T18:49:54.938Z,9.00
2023-01-08T18:52:57.687Z,8.40
2023-01-08T18:56:00.835Z,8.93
2023-01-08T18:59:06.814Z,8.77
2023-01-08T19:02:17.435Z,7.13
2023-01-08T19:05:20.910Z,7.40
2023-01-08T19:08:23.789Z,7.30
2023-01-08T19:11:27.042Z,7.40
2023-01-08T19:14:31.634Z,6.87
2023-01-08T19:17:34.955Z,6.93
2023-01-08T19:20:43.121Z,6.07
2023-01-08T19:23:46.366Z,6.07
2023-01-08T19:26:49.123Z,7.03
2023-01-08T19:29:53.521Z,6.80
2023-01-08T19:32:56.290Z,8.17
2023-01-08T19:36:01.857Z,7.53
2023-01-08T19:39:05.304Z,7.90
2023-01-08T19:42:25.652Z,7.30
2023-01-08T19:45:29.870Z,7.00
2023-01-08T19:48:32.954Z,6.80
2023-01-08T19:51:35.756Z,6.83
2023-01-08T19:54:38.783Z,7.60
2023-01-08T19:57:41.631Z,7.90
2023-01-08T20:00:45.778Z,7.97
2023-01-08T20:03:49.306Z,7.80
2023-01-08T20:06:52.699Z,7.37
2023-01-08T20:09:55.697Z,6.90
2023-01-08T20:12:58.473Z,7.37
2023-01-08T20:16:03.136Z,6.30
2023-01-08T20:19:05.962Z,6.57
2023-01-08T20:22:08.773Z,6.17
2023-01-08T20:25:11.638Z,6.40
2023-01-08T20:28:14.378Z,7.53
2023-01-08T20:31:19.917Z,7.63
2023-01-08T20:34:22.729Z,7.37
2023-01-08T20:37:25.513Z,6.33
2023-01-08T20:40:28.276Z,7.47
2023-01-08T20:43:31.926Z,7.17
2023-01-08T20:46:37.281Z,7.17
2023-01-08T20:49:40.241Z,9.57
2023-01-08T20:52:43.463Z,8.47
2023-01-08T20:55:46.338Z,8.27
2023-01-08T20:58:50.504Z,10.57
2023-01-08T21:01:54.691Z,7.60
2023-01-08T21:04:57.497Z,7.67
2023-01-08T21:08:00.239Z,7.83
2023-01-08T21:11:04.696Z,7.20
2023-01-08T21:14:08.880Z,7.93
2023-01-08T21:17:13.118Z,8.17
2023-01-08T21:20:16.593Z,9.07
2023-01-08T21:23:19.713Z,9.43
2023-01-08T21:26:29.522Z,10.40
2023-01-08T21:29:32.530Z,9.73
2023-01-08T21:32:37.916Z,9.43
2023-01-08T21:35:40.728Z,9.50
2023-01-08T21:38:43.929Z,10.37
2023-01-08T21:42:04.667Z,9.67
2023-01-08T21:45:27.470Z,10.30
2023-01-08T21:48:31.834Z,9.00
2023-01-08T21:51:52.004Z,8.63
2023-01-08T21:54:56.154Z,8.10
2023-01-08T21:57:58.926Z,8.03
2023-01-08T22:01:01.852Z,9.17
2023-01-08T22:04:06.311Z,9.27
2023-01-08T22:07:09.142Z,7.73
2023-01-08T22:10:12.915Z,7.70
2023-01-08T22:13:15.733Z,8.03
2023-01-08T22:16:18.618Z,7.90
2023-01-08T22:19:22.778Z,6.87
2023-01-08T22:22:25.553Z,8.67
2023-01-08T22:25:28.404Z,6.93
2023-01-08T22:28:31.424Z,6.93
2023-01-08T22:31:34.948Z,5.90
2023-01-08T22:34:39.202Z,6.17
2023-01-08T22:37:43.624Z,6.13
2023-01-08T22:40:46.419Z,6.03
2023-01-08T22:43:53.218Z,5.20
2023-01-08T22:46:56.482Z,5.17
2023-01-08T22:50:00.854Z,5.47
2023-01-08T22:53:03.737Z,5.47
2023-01-08T22:56:11.848Z,5.17
2023-01-08T22:59:14.810Z,5.47
2023-01-08T23:02:24.057Z,5.00
2023-01-08T23:05:28.978Z,4.50
2023-01-08T23:08:31.827Z,5.17
2023-01-08T23:11:34.759Z,5.27
2023-01-08T23:14:37.593Z,5.37
2023-01-08T23:17:51.584Z,5.23
2023-01-08T23:21:01.358Z,4.70
2023-01-08T23:24:04.388Z,4.87
2023-01-08T23:27:07.487Z,4.70
2023-01-08T23:30:11.583Z,5.10
2023-01-08T23:33:14.521Z,4.40
2023-01-08T23:36:21.109Z,4.30
2023-01-08T23:39:26.595Z,5.07
2023-01-08T23:42:29.913Z,4.47
2023-01-08T23:45:35.625Z,4.77
2023-01-08T23:48:38.539Z,4.90
2023-01-08T23:51:42.877Z,6.00
2023-01-08T23:54:45.717Z,6.53
2023-01-08T23:57:48.673Z,8.20
